Valle Toledo, Valles Caldera, New Mexico Weather observations

Data are for 10 minute period ending at time listed.
 Day   Time   Solar   Ave.   Ave.  Ave.  Vector  Max.   Baro.   Total    
  of    of     Rad.   Air    Rel.  Wind   Wind   Wind  Press.  Precip.   
Year   Day            Temp.  Hum.  Speed  Dir.   Gust                    
2016   (MST)  Kw/m2    F      %     mph   deg.    mph    mb.     in.     
-------------------------------------------------------------------------
 144    6:30   0.24   41.1    52    4.5    20     6.6   729.2    0.00 
 144    6:40   0.28   43.8    46    4.8   334     9.0   729.3    0.00 
 144    6:50   0.31   47.1    40    3.5   318     6.6   729.3    0.00 
 144    7:00   0.34   48.7    38    3.8   328     7.8   729.3    0.00 
 144    7:10   0.38   48.8    37    4.5   309     9.0   729.3    0.00 
 144    7:20   0.41   49.0    36    6.7   302    15.5   729.3    0.00 
 144    7:30   0.44   48.4    36    7.9   292    14.3   729.3    0.00 
 144    7:40   0.48   48.9    34    9.7   296    16.1   729.4    0.00 
 144    7:50   0.51   49.2    34    8.4   279    14.3   729.4    0.00 
 144    8:00   0.54   49.5    33    8.6   284    18.5   729.5    0.00 
 144    8:10   0.57   50.0    32    8.2   264    16.1   729.5    0.00 
 144    8:20   0.61   50.8    31    9.1   274    15.5   729.5    0.00 
 144    8:30   0.64   51.1    30    8.9   255    17.9   729.4    0.00 
 144    8:40   0.67   51.8    30    8.9   250    14.9   729.4    0.00 
 144    8:50   0.69   52.4    30    7.5   249    14.9   729.5    0.00 
 144    9:00   0.71   52.8    30    8.5   260    13.1   729.4    0.00 
 144    9:10   0.75   52.8    30    8.2   229    14.3   729.4    0.00 
 144    9:20   0.76   52.9    30    9.2   259    16.1   729.4    0.00 
 144    9:30   0.79   53.7    30    8.9   263    17.9   729.3    0.00 
 144    9:40   0.81   53.4    29   10.6   285    16.7   729.4    0.00 
 144    9:50   0.82   53.8    29   10.2   269    17.9   729.4    0.00 
 144   10:00   0.84   54.0    29    9.3   270    16.1   729.5    0.00 
 144   10:10   0.86   54.7    28    8.7   279    16.7   729.6    0.00 
 144   10:20   0.87   54.6    28    8.5   256    14.9   729.5    0.00 
 144   10:30   0.89   55.4    28    6.0   249    11.9   729.4    0.00 
 144   10:40   0.90   56.3    29    6.6   224    11.9   729.4    0.00 
 144   10:50   0.92   56.4    28    7.5   225    17.9   729.4    0.00 
 144   11:00   0.93   56.9    28    7.9   214    13.1   729.4    0.00 
 144   11:10   0.93   56.6    28    8.2   224    14.9   729.5    0.00 
 144   11:20   0.93   57.4    28    6.9   223    14.9   729.4    0.00 
 144   11:30   0.94   57.4    27    7.8   214    16.1   729.4    0.00 
 144   11:40   0.95   56.8    27    8.6   214    19.1   729.3    0.00 
 144   11:50   0.94   57.0    27    7.8   198    16.7   729.3    0.00 
 144   12:00   0.94   57.8    26    7.9   194    14.3   729.2    0.00 
 144   12:10   0.95   57.7    26    8.2   219    15.5   729.2    0.00 
 144   12:20   0.94   57.7    25    8.9   232    17.9   729.1    0.00 
 144   12:30   0.94   57.6    27    7.2   218    13.7   729.0    0.00 
 144   12:40   0.94   58.0    26    7.9   223    14.3   729.0    0.00 
 144   12:50   0.94   58.3    25    8.3   217    17.3   729.0    0.00 
 144   13:00   0.89   59.3    25    7.1   201    13.1   728.9    0.00 
 144   13:10   0.98   60.1    24    8.9   255    16.7   728.9    0.00 
 144   13:20   0.89   59.8    24    8.2   219    16.1   728.9    0.00 
 144   13:30   0.88   59.8    24    8.7   228    13.7   728.8    0.00 
 144   13:40   0.91   60.5    24    8.6   204    16.7   728.8    0.00 
 144   13:50   0.93   60.5    23    8.7   224    19.1   728.8    0.00 
 144   14:00   0.65   59.4    24    8.0   206    15.5   728.7    0.00 
 144   14:10   0.56   60.0    25    6.8   247    16.1   728.6    0.00 
 144   14:20   0.55   59.2    25    6.7   209    13.1   728.6    0.00 
 144   14:30   0.36   58.1    27    6.3   194    16.1   728.6    0.00 
 144   14:40   0.30   58.2    26    6.9   212    13.1   728.5    0.00 
 144   14:50   0.45   58.8    26    5.6   191    12.5   728.3    0.00 
 144   15:00   0.39   58.5    26    7.0   183    16.1   728.3    0.00 
 144   15:10   0.26   59.0    25    6.9   192    19.1   728.3    0.00 
 144   15:20   0.30   58.4    26    6.9   187    14.3   728.3    0.00 
 144   15:30   0.47   59.7    24    7.2   202    15.5   728.2    0.00 
 144   15:40   0.20   59.3    24    5.4   216    13.1   728.3    0.00 
 144   15:50   0.25   58.7    25    5.6   199    11.3   728.3    0.00 
 144   16:00   0.42   59.5    24    7.3   184    17.3   728.2    0.00 
 144   16:10   0.67   62.5    21    7.6   236    18.5   728.1    0.00 
 144   16:20   0.11   60.2    21    7.1   220    16.7   728.1    0.00 
 144   16:30   0.34   60.3    20    6.5   232    14.9   728.2    0.00 
 144   16:40   0.47   60.8    20    6.7   241    10.8   728.1    0.00 
 144   16:50   0.24   61.1    20    6.9   257    16.1   728.0    0.00 
 144   17:00   0.32   60.7    20    6.6   214    12.5   728.0    0.00 
 144   17:10   0.41   61.9    19    7.7   230    14.9   728.0    0.00 
 144   17:20   0.22   61.2    18    7.6   226    15.5   728.0    0.00 
 144   17:30   0.14   59.5    19    6.1   226    12.5   728.0    0.00 
 144   17:40   0.29   60.8    20    4.3   216    10.8   727.9    0.00 
 144   17:50   0.32   63.1    17    6.1   255    15.5   727.8    0.00 
 144   18:00   0.25   61.7    17    7.7   252    12.5   727.9    0.00 
 144   18:10   0.20   61.0    17    6.3   246    12.5   728.0    0.00 
 144   18:20   0.16   60.7    18    6.6   263    17.3   728.0    0.00 
 144   18:30   0.12   59.9    18    7.2   272    15.5   728.1    0.00 
 144   18:40   0.09   59.1    19    5.5   272     9.6   728.2    0.00 
 144   18:50   0.02   57.8    20    4.1   287     7.8   728.2    0.00 
 144   19:00   0.01   55.9    22    3.4   310     6.0   728.2    0.00 
 144   19:10   0.01   54.4    23    3.3   358     6.0   728.2    0.00 
 144   19:20   0.00   53.0    25    3.4    30     4.8   728.2    0.00 
 144   19:30   0.00   51.7    26    3.9    18     6.0   728.2    0.00 
 144   19:40   0.00   50.6    28    4.2    33     4.8   728.2    0.00 
 144   19:50   0.00   49.4    30    4.4    35     5.4   728.2    0.00 
 144   20:00   0.00   48.7    31    4.5    37     5.4   728.2    0.00 
 144   20:10   0.00   48.3    31    4.7    35     5.4   728.3    0.00 
 144   20:20   0.00   48.0    32    4.4    40     5.4   728.3    0.00 
 144   20:30   0.00   47.4    32    5.2    39     6.0   728.4    0.00 
 144   20:40   0.00   47.0    33    5.0    36     5.4   728.4    0.00 
 144   20:50   0.00   46.7    33    4.8    36     5.4   728.4    0.00 
 144   21:00   0.00   46.3    34    4.6    36     5.4   728.6    0.00 
 144   21:10   0.00   45.8    35    4.3    26     6.0   728.7    0.00 
 144   21:20   0.00   46.5    31    4.6   357     7.8   728.8    0.00 
 144   21:30   0.00   47.0    31    4.3    31     5.4   728.9    0.00 
 144   21:40   0.00   46.5    31    4.7    34     6.6   728.9    0.00 
 144   21:50   0.00   46.6    30    5.0    33     7.8   728.8    0.00 
 144   22:00   0.00   46.2    30    4.3    38     6.0   728.8    0.00 
 144   22:10   0.00   45.5    31    3.8    36     4.8   728.8    0.00 
 144   22:20   0.00   45.0    30    3.5    32     5.4   728.8    0.00 
 144   22:30   0.00   44.6    31    4.6    38     5.4   728.8    0.00 
 144   22:40   0.00   44.2    31    4.0    30     6.0   728.9    0.00 
 144   22:50   0.00   43.9    31    4.6    36     5.4   728.9    0.00 
 144   23:00   0.00   44.0    31    4.4    32     6.6   728.9    0.00 
 144   23:10   0.00   44.0    30    4.5    34     5.4   728.9    0.00 
 144   23:20   0.00   43.7    30    4.9    38     6.0   729.0    0.00 
 144   23:30   0.00   43.3    31    4.5    34     6.0   729.0    0.00 
 144   23:40   0.00   42.7    32    4.6    33     6.0   729.0    0.00 
 144   23:50   0.00   43.0    30    4.4    39     5.4   729.1    0.00 
 145    0:00   0.00   42.9    30    4.3    33     5.4   729.1    0.00 
 145    0:10   0.00   42.8    31    4.1    26     6.0   729.1    0.00 
 145    0:20   0.00   42.6    30    4.2    27     5.4   729.1    0.00 
 145    0:30   0.00   42.8    30    4.3    16     6.6   729.2    0.00 
 145    0:40   0.00   42.8    30    4.3    29     5.4   729.2    0.00 
 145    0:50   0.00   42.5    31    4.3    41     6.0   729.2    0.00 
 145    1:00   0.00   42.4    30    3.9    42     5.4   729.3    0.00 
 145    1:10   0.00   42.1    31    4.5    36     5.4   729.3    0.00 
 145    1:20   0.00   41.7    32    4.8    36     6.0   729.2    0.00 
 145    1:30   0.00   41.4    33    4.6    38     6.0   729.2    0.00 
 145    1:40   0.00   41.3    33    4.4    28     6.0   729.3    0.00 
 145    1:50   0.00   41.1    33    4.6    31     6.6   729.3    0.00 
 145    2:00   0.00   41.3    32    4.3    26     5.4   729.2    0.00 
 145    2:10   0.00   41.0    34    4.6    32     6.0   729.1    0.00 
 145    2:20   0.00   40.4    35    5.0    35     6.0   729.1    0.00 
 145    2:30   0.00   40.1    37    5.1    38     6.0   729.0    0.00 
 145    2:40   0.00   40.2    37    4.8    37     6.0   729.1    0.00 
 145    2:50   0.00   40.2    38    3.8    37     5.4   729.2    0.00 
 145    3:00   0.00   39.6    37    2.7    10     4.2   729.3    0.00 
 145    3:10   0.00   39.1    38    4.6    38     5.4   729.3    0.00 
 145    3:20   0.00   39.1    39    4.0    32     4.8   729.4    0.00 
 145    3:30   0.00   38.5    40    4.0    41     5.4   729.3    0.00 
 145    3:40   0.00   38.2    42    3.9    45     5.4   729.3    0.00 
 145    3:50   0.00   37.8    41    3.7    30     5.4   729.4    0.00 
 145    4:00   0.00   37.7    41    4.2    39     4.8   729.4    0.00 
 145    4:10   0.00   37.8    41    3.3    36     4.8   729.4    0.00 
 145    4:20   0.00   37.6    42    4.0    40     5.4   729.4    0.00 
 145    4:30   0.00   37.1    43    3.3    29     4.8   729.5    0.00 
 145    4:40   0.00   36.7    45    3.9    32     5.4   729.5    0.00 
 145    4:50   0.00   36.4    46    3.4    76     5.4   729.6    0.00 
 145    5:00   0.00   36.0    48    2.5    24     4.8   729.6    0.00 
 145    5:10   0.01   36.2    48    2.7    61     4.8   729.7    0.00 
 145    5:20   0.01   36.3    48    2.1    26     3.6   729.7    0.00 
 145    5:30   0.01   36.3    49    2.5    33     3.6   729.9    0.00 
 145    5:40   0.01   36.5    49    4.0    39     4.8   730.0    0.00 
 145    5:50   0.01   37.4    48    3.2    43     4.2   730.0    0.00 
 145    6:00   0.02   37.9    49    1.8    31     3.0   730.1    0.00 
 145    6:10   0.04   37.7    52    1.9    42     3.6   730.1    0.00 
 145    6:20   0.21   38.4    52    3.1    44     4.2   730.1    0.00 

Return to Valle Toledo, Valles Caldera graphs page.


Western Regional Climate Center,wrcc@dri.edu